sensor_id;sensor_type;location;lat;lon;timestamp;temperature;humidity
57030;DHT22;42920;45.306;20.448;2023-03-23T00:01:33;282.00;2278.40
57030;DHT22;42920;45.306;20.448;2023-03-23T00:04:03;281.70;2278.40
57030;DHT22;42920;45.306;20.448;2023-03-23T00:06:29;281.70;2278.40
57030;DHT22;42920;45.306;20.448;2023-03-23T00:09:00;281.70;2278.40
57030;DHT22;42920;45.306;20.448;2023-03-23T00:11:30;281.80;2278.40
57030;DHT22;42920;45.306;20.448;2023-03-23T00:13:58;281.80;2278.40
57030;DHT22;42920;45.306;20.448;2023-03-23T00:16:31;281.70;2278.40
57030;DHT22;42920;45.306;20.448;2023-03-23T00:19:02;256.90;2252.80
57030;DHT22;42920;45.306;20.448;2023-03-23T00:21:34;281.60;2278.40
57030;DHT22;42920;45.306;20.448;2023-03-23T00:26:32;256.70;2252.80
57030;DHT22;42920;45.306;20.448;2023-03-23T00:29:00;256.60;2252.80
57030;DHT22;42920;45.306;20.448;2023-03-23T00:31:26;256.50;2252.80
57030;DHT22;42920;45.306;20.448;2023-03-23T00:33:57;256.40;2252.80
57030;DHT22;42920;45.306;20.448;2023-03-23T00:36:23;256.10;2252.80
57030;DHT22;42920;45.306;20.448;2023-03-23T00:38:49;256.00;2252.80
57030;DHT22;42920;45.306;20.448;2023-03-23T00:41:15;230.90;2252.80
57030;DHT22;42920;45.306;20.448;2023-03-23T00:43:41;231.20;2252.80
57030;DHT22;42920;45.306;20.448;2023-03-23T00:46:06;230.90;2252.80
57030;DHT22;42920;45.306;20.448;2023-03-23T00:48:38;231.00;2252.80
57030;DHT22;42920;45.306;20.448;2023-03-23T00:51:10;230.90;2252.80
57030;DHT22;42920;45.306;20.448;2023-03-23T00:53:37;230.50;2252.80
57030;DHT22;42920;45.306;20.448;2023-03-23T00:56:03;230.70;2252.80
57030;DHT22;42920;45.306;20.448;2023-03-23T00:58:28;230.90;2252.80
57030;DHT22;42920;45.306;20.448;2023-03-23T01:00:54;230.90;2252.80
57030;DHT22;42920;45.306;20.448;2023-03-23T01:03:22;231.10;2252.80
57030;DHT22;42920;45.306;20.448;2023-03-23T01:05:51;231.30;2252.80
57030;DHT22;42920;45.306;20.448;2023-03-23T01:08:17;256.00;2252.80
57030;DHT22;42920;45.306;20.448;2023-03-23T01:10:45;256.40;2252.80
57030;DHT22;42920;45.306;20.448;2023-03-23T01:13:11;231.10;2252.80
57030;DHT22;42920;45.306;20.448;2023-03-23T01:15:37;256.20;2252.80
57030;DHT22;42920;45.306;20.448;2023-03-23T01:18:03;256.20;2252.80
57030;DHT22;42920;45.306;20.448;2023-03-23T01:20:29;256.30;2252.80
57030;DHT22;42920;45.306;20.448;2023-03-23T01:22:57;256.30;2252.80
57030;DHT22;42920;45.306;20.448;2023-03-23T01:25:30;256.30;2252.80
57030;DHT22;42920;45.306;20.448;2023-03-23T01:27:57;256.20;2252.80
57030;DHT22;42920;45.306;20.448;2023-03-23T01:30:24;256.10;2252.80
57030;DHT22;42920;45.306;20.448;2023-03-23T01:32:51;256.30;2252.80
57030;DHT22;42920;45.306;20.448;2023-03-23T01:35:17;256.40;2252.80
57030;DHT22;42920;45.306;20.448;2023-03-23T01:37:43;256.40;2252.80
57030;DHT22;42920;45.306;20.448;2023-03-23T01:40:10;256.60;2252.80
57030;DHT22;42920;45.306;20.448;2023-03-23T01:42:38;256.60;2252.80
57030;DHT22;42920;45.306;20.448;2023-03-23T01:47:57;256.60;2252.80
57030;DHT22;42920;45.306;20.448;2023-03-23T01:50:25;256.50;2252.80
57030;DHT22;42920;45.306;20.448;2023-03-23T01:52:54;256.40;2252.80
57030;DHT22;42920;45.306;20.448;2023-03-23T01:55:21;256.60;2252.80
57030;DHT22;42920;45.306;20.448;2023-03-23T01:57:48;256.60;2252.80
57030;DHT22;42920;45.306;20.448;2023-03-23T02:00:15;256.60;2252.80
57030;DHT22;42920;45.306;20.448;2023-03-23T02:02:46;256.60;2252.80
57030;DHT22;42920;45.306;20.448;2023-03-23T02:05:34;256.70;2252.80
57030;DHT22;42920;45.306;20.448;2023-03-23T02:08:03;256.70;2252.80
57030;DHT22;42920;45.306;20.448;2023-03-23T02:10:32;256.70;2252.80
57030;DHT22;42920;45.306;20.448;2023-03-23T02:12:59;256.60;2252.80
57030;DHT22;42920;45.306;20.448;2023-03-23T02:15:38;256.40;2252.80
57030;DHT22;42920;45.306;20.448;2023-03-23T02:26:33;256.50;2252.80
57030;DHT22;42920;45.306;20.448;2023-03-23T02:34:53;256.50;2252.80
57030;DHT22;42920;45.306;20.448;2023-03-23T02:39:55;256.60;2252.80
57030;DHT22;42920;45.306;20.448;2023-03-23T02:42:26;256.70;2252.80
57030;DHT22;42920;45.306;20.448;2023-03-23T02:44:54;256.80;2252.80
57030;DHT22;42920;45.306;20.448;2023-03-23T02:47:23;256.80;2252.80
57030;DHT22;42920;45.306;20.448;2023-03-23T02:49:53;256.90;2252.80
57030;DHT22;42920;45.306;20.448;2023-03-23T02:52:24;256.80;2252.80
57030;DHT22;42920;45.306;20.448;2023-03-23T02:54:51;256.90;2252.80
57030;DHT22;42920;45.306;20.448;2023-03-23T02:57:17;256.80;2252.80
57030;DHT22;42920;45.306;20.448;2023-03-23T02:59:43;256.90;2252.80
57030;DHT22;42920;45.306;20.448;2023-03-23T03:02:17;256.90;2252.80
57030;DHT22;42920;45.306;20.448;2023-03-23T03:13:07;256.90;2252.80
57030;DHT22;42920;45.306;20.448;2023-03-23T03:18:31;256.90;2252.80
57030;DHT22;42920;45.306;20.448;2023-03-23T03:21:04;256.80;2252.80
57030;DHT22;42920;45.306;20.448;2023-03-23T03:23:33;256.80;2252.80
57030;DHT22;42920;45.306;20.448;2023-03-23T03:26:01;256.80;2252.80
57030;DHT22;42920;45.306;20.448;2023-03-23T03:28:32;256.80;2252.80
57030;DHT22;42920;45.306;20.448;2023-03-23T03:31:00;256.70;2252.80
57030;DHT22;42920;45.306;20.448;2023-03-23T03:33:28;256.80;2252.80
57030;DHT22;42920;45.306;20.448;2023-03-23T03:35:58;256.80;2252.80
57030;DHT22;42920;45.306;20.448;2023-03-23T03:38:25;256.60;2252.80
57030;DHT22;42920;45.306;20.448;2023-03-23T03:40:52;256.50;2252.80
57030;DHT22;42920;45.306;20.448;2023-03-23T03:43:18;256.60;2252.80
57030;DHT22;42920;45.306;20.448;2023-03-23T03:45:44;256.70;2252.80
57030;DHT22;42920;45.306;20.448;2023-03-23T03:48:11;256.70;2252.80
57030;DHT22;42920;45.306;20.448;2023-03-23T03:50:37;256.70;2252.80
57030;DHT22;42920;45.306;20.448;2023-03-23T03:53:02;256.80;2252.80
57030;DHT22;42920;45.306;20.448;2023-03-23T03:55:28;256.70;2252.80
57030;DHT22;42920;45.306;20.448;2023-03-23T03:57:54;256.70;2252.80
57030;DHT22;42920;45.306;20.448;2023-03-23T04:00:20;256.60;2252.80
57030;DHT22;42920;45.306;20.448;2023-03-23T04:02:49;256.60;2252.80
57030;DHT22;42920;45.306;20.448;2023-03-23T04:05:21;256.50;2252.80
57030;DHT22;42920;45.306;20.448;2023-03-23T04:07:48;256.40;2252.80
57030;DHT22;42920;45.306;20.448;2023-03-23T04:10:20;256.40;2252.80
57030;DHT22;42920;45.306;20.448;2023-03-23T04:12:49;256.40;2252.80
57030;DHT22;42920;45.306;20.448;2023-03-23T04:15:15;256.20;2252.80
57030;DHT22;42920;45.306;20.448;2023-03-23T04:17:41;256.20;2252.80
57030;DHT22;42920;45.306;20.448;2023-03-23T04:20:09;231.30;2252.80
57030;DHT22;42920;45.306;20.448;2023-03-23T04:22:44;231.10;2252.80
57030;DHT22;42920;45.306;20.448;2023-03-23T04:25:11;231.10;2252.80
57030;DHT22;42920;45.306;20.448;2023-03-23T04:27:39;230.90;2252.80
57030;DHT22;42920;45.306;20.448;2023-03-23T04:30:09;230.70;2252.80
57030;DHT22;42920;45.306;20.448;2023-03-23T04:32:36;230.70;2252.80
57030;DHT22;42920;45.306;20.448;2023-03-23T04:35:10;230.90;2252.80
57030;DHT22;42920;45.306;20.448;2023-03-23T04:37:37;230.90;2252.80
57030;DHT22;42920;45.306;20.448;2023-03-23T04:40:03;231.00;2252.80
57030;DHT22;42920;45.306;20.448;2023-03-23T04:42:36;231.00;2252.80
57030;DHT22;42920;45.306;20.448;2023-03-23T04:45:03;231.00;2252.80
57030;DHT22;42920;45.306;20.448;2023-03-23T04:47:32;231.00;2252.80
57030;DHT22;42920;45.306;20.448;2023-03-23T04:49:59;231.00;2252.80
57030;DHT22;42920;45.306;20.448;2023-03-23T04:52:26;231.10;2252.80
57030;DHT22;42920;45.306;20.448;2023-03-23T04:54:54;231.10;2252.80
57030;DHT22;42920;45.306;20.448;2023-03-23T04:57:21;231.20;2252.80
57030;DHT22;42920;45.306;20.448;2023-03-23T04:59:47;231.30;2252.80
57030;DHT22;42920;45.306;20.448;2023-03-23T05:02:13;256.00;2252.80
57030;DHT22;42920;45.306;20.448;2023-03-23T05:04:40;256.00;2252.80
57030;DHT22;42920;45.306;20.448;2023-03-23T05:07:07;256.10;2252.80
57030;DHT22;42920;45.306;20.448;2023-03-23T05:09:33;231.30;2252.80
57030;DHT22;42920;45.306;20.448;2023-03-23T05:12:07;256.10;2252.80
57030;DHT22;42920;45.306;20.448;2023-03-23T05:14:33;256.10;2252.80
57030;DHT22;42920;45.306;20.448;2023-03-23T05:17:00;256.10;2252.80
57030;DHT22;42920;45.306;20.448;2023-03-23T05:19:26;256.20;2252.80
57030;DHT22;42920;45.306;20.448;2023-03-23T05:21:56;256.30;2252.80
57030;DHT22;42920;45.306;20.448;2023-03-23T05:24:22;256.30;2252.80
57030;DHT22;42920;45.306;20.448;2023-03-23T05:26:49;256.40;2252.80
57030;DHT22;42920;45.306;20.448;2023-03-23T05:29:18;256.50;2252.80
57030;DHT22;42920;45.306;20.448;2023-03-23T05:31:43;256.60;2252.80
57030;DHT22;42920;45.306;20.448;2023-03-23T05:34:09;256.50;2252.80
57030;DHT22;42920;45.306;20.448;2023-03-23T05:36:37;256.50;2252.80
57030;DHT22;42920;45.306;20.448;2023-03-23T05:39:03;256.50;2252.80
57030;DHT22;42920;45.306;20.448;2023-03-23T05:41:29;256.60;2252.80
57030;DHT22;42920;45.306;20.448;2023-03-23T05:43:54;256.70;2252.80
57030;DHT22;42920;45.306;20.448;2023-03-23T05:46:20;256.70;2252.80
57030;DHT22;42920;45.306;20.448;2023-03-23T05:48:46;256.70;2252.80
57030;DHT22;42920;45.306;20.448;2023-03-23T05:51:11;256.60;2252.80
57030;DHT22;42920;45.306;20.448;2023-03-23T05:53:37;256.60;2252.80
57030;DHT22;42920;45.306;20.448;2023-03-23T05:56:03;256.60;2252.80
57030;DHT22;42920;45.306;20.448;2023-03-23T05:58:29;256.60;2252.80
57030;DHT22;42920;45.306;20.448;2023-03-23T06:00:55;256.70;2252.80
57030;DHT22;42920;45.306;20.448;2023-03-23T06:03:21;256.70;2252.80
57030;DHT22;42920;45.306;20.448;2023-03-23T06:05:48;256.80;2252.80
57030;DHT22;42920;45.306;20.448;2023-03-23T06:08:14;256.80;2252.80
57030;DHT22;42920;45.306;20.448;2023-03-23T06:10:40;256.90;2252.80
57030;DHT22;42920;45.306;20.448;2023-03-23T06:13:05;256.90;2252.80
57030;DHT22;42920;45.306;20.448;2023-03-23T06:15:31;281.60;2278.40
57030;DHT22;42920;45.306;20.448;2023-03-23T06:18:02;281.60;2278.40
57030;DHT22;42920;45.306;20.448;2023-03-23T06:20:28;281.70;2278.40
57030;DHT22;42920;45.306;20.448;2023-03-23T06:22:54;281.80;2278.40
57030;DHT22;42920;45.306;20.448;2023-03-23T06:25:21;282.00;2278.40
57030;DHT22;42920;45.306;20.448;2023-03-23T06:27:48;282.10;2278.40
57030;DHT22;42920;45.306;20.448;2023-03-23T06:30:14;282.30;2278.40
57030;DHT22;42920;45.306;20.448;2023-03-23T06:32:42;282.50;2278.40
57030;DHT22;42920;45.306;20.448;2023-03-23T06:35:11;307.20;2304.00
57030;DHT22;42920;45.306;20.448;2023-03-23T06:37:37;307.30;2304.00
57030;DHT22;42920;45.306;20.448;2023-03-23T06:40:04;307.40;2304.00
57030;DHT22;42920;45.306;20.448;2023-03-23T06:42:32;307.50;2304.00
57030;DHT22;42920;45.306;20.448;2023-03-23T06:44:58;307.70;2304.00
57030;DHT22;42920;45.306;20.448;2023-03-23T06:47:26;307.90;2304.00
57030;DHT22;42920;45.306;20.448;2023-03-23T06:49:52;308.10;2304.00
57030;DHT22;42920;45.306;20.448;2023-03-23T06:52:18;332.90;2329.60
57030;DHT22;42920;45.306;20.448;2023-03-23T06:54:44;333.00;2329.60
57030;DHT22;42920;45.306;20.448;2023-03-23T06:57:09;333.20;2329.60
57030;DHT22;42920;45.306;20.448;2023-03-23T06:59:35;333.40;2329.60
57030;DHT22;42920;45.306;20.448;2023-03-23T07:02:01;333.50;2329.60
57030;DHT22;42920;45.306;20.448;2023-03-23T07:04:27;333.60;2329.60
57030;DHT22;42920;45.306;20.448;2023-03-23T07:06:53;333.70;2329.60
57030;DHT22;42920;45.306;20.448;2023-03-23T07:09:18;358.40;2329.60
57030;DHT22;42920;45.306;20.448;2023-03-23T07:11:44;358.50;2329.60
57030;DHT22;42920;45.306;20.448;2023-03-23T07:14:13;358.50;2329.60
57030;DHT22;42920;45.306;20.448;2023-03-23T07:16:38;358.70;2329.60
57030;DHT22;42920;45.306;20.448;2023-03-23T07:19:04;358.80;2329.60
57030;DHT22;42920;45.306;20.448;2023-03-23T07:21:30;359.00;2329.60
57030;DHT22;42920;45.306;20.448;2023-03-23T07:23:56;359.20;2329.60
57030;DHT22;42920;45.306;20.448;2023-03-23T07:26:22;359.30;2329.60
57030;DHT22;42920;45.306;20.448;2023-03-23T07:28:48;384.00;2329.60
57030;DHT22;42920;45.306;20.448;2023-03-23T07:31:14;384.00;2329.60
57030;DHT22;42920;45.306;20.448;2023-03-23T07:33:39;384.00;2329.60
57030;DHT22;42920;45.306;20.448;2023-03-23T07:36:05;384.00;2329.60
57030;DHT22;42920;45.306;20.448;2023-03-23T07:38:31;384.20;2329.60
57030;DHT22;42920;45.306;20.448;2023-03-23T07:40:58;384.40;2329.60
57030;DHT22;42920;45.306;20.448;2023-03-23T07:43:24;384.40;2329.60
57030;DHT22;42920;45.306;20.448;2023-03-23T07:45:49;384.60;2329.60
57030;DHT22;42920;45.306;20.448;2023-03-23T07:48:15;384.70;2329.60
57030;DHT22;42920;45.306;20.448;2023-03-23T07:50:41;384.70;2329.60
57030;DHT22;42920;45.306;20.448;2023-03-23T07:53:07;384.90;2329.60
57030;DHT22;42920;45.306;20.448;2023-03-23T07:55:32;409.60;2355.20
57030;DHT22;42920;45.306;20.448;2023-03-23T07:57:58;409.60;2355.20
57030;DHT22;42920;45.306;20.448;2023-03-23T08:00:24;409.70;2355.20
57030;DHT22;42920;45.306;20.448;2023-03-23T08:02:53;409.80;2355.20
57030;DHT22;42920;45.306;20.448;2023-03-23T08:05:21;409.90;2355.20
57030;DHT22;42920;45.306;20.448;2023-03-23T08:07:47;410.00;2355.20
57030;DHT22;42920;45.306;20.448;2023-03-23T08:10:15;409.90;2355.20
57030;DHT22;42920;45.306;20.448;2023-03-23T08:12:42;410.00;2355.20
57030;DHT22;42920;45.306;20.448;2023-03-23T08:15:10;410.00;2355.20
57030;DHT22;42920;45.306;20.448;2023-03-23T08:17:42;410.10;2355.20
57030;DHT22;42920;45.306;20.448;2023-03-23T08:20:12;410.20;2355.20
57030;DHT22;42920;45.306;20.448;2023-03-23T08:22:43;410.20;2355.20
57030;DHT22;42920;45.306;20.448;2023-03-23T08:25:12;410.30;2355.20
57030;DHT22;42920;45.306;20.448;2023-03-23T08:27:38;410.40;2355.20
57030;DHT22;42920;45.306;20.448;2023-03-23T08:30:10;410.50;2355.20
57030;DHT22;42920;45.306;20.448;2023-03-23T08:32:36;435.20;2355.20
57030;DHT22;42920;45.306;20.448;2023-03-23T08:35:02;435.30;2355.20
57030;DHT22;42920;45.306;20.448;2023-03-23T08:37:28;435.20;2355.20
57030;DHT22;42920;45.306;20.448;2023-03-23T08:39:55;435.30;2355.20
57030;DHT22;42920;45.306;20.448;2023-03-23T08:42:23;435.40;2355.20
57030;DHT22;42920;45.306;20.448;2023-03-23T08:44:50;435.40;2355.20
57030;DHT22;42920;45.306;20.448;2023-03-23T08:47:16;435.50;2355.20
57030;DHT22;42920;45.306;20.448;2023-03-23T08:49:42;435.60;2355.20
57030;DHT22;42920;45.306;20.448;2023-03-23T08:52:08;435.60;2355.20
57030;DHT22;42920;45.306;20.448;2023-03-23T08:54:34;435.70;2355.20
57030;DHT22;42920;45.306;20.448;2023-03-23T08:57:01;435.80;2355.20
57030;DHT22;42920;45.306;20.448;2023-03-23T08:59:27;435.90;2355.20
57030;DHT22;42920;45.306;20.448;2023-03-23T09:01:53;435.90;2355.20
57030;DHT22;42920;45.306;20.448;2023-03-23T09:04:19;436.10;2355.20
57030;DHT22;42920;45.306;20.448;2023-03-23T09:06:45;460.80;2380.80
57030;DHT22;42920;45.306;20.448;2023-03-23T09:09:11;460.90;2380.80
57030;DHT22;42920;45.306;20.448;2023-03-23T09:11:38;461.00;2380.80
57030;DHT22;42920;45.306;20.448;2023-03-23T09:14:06;461.10;2227.20
57030;DHT22;42920;45.306;20.448;2023-03-23T09:16:32;461.10;2329.60
57030;DHT22;42920;45.306;20.448;2023-03-23T09:18:58;461.20;2380.80
57030;DHT22;42920;45.306;20.448;2023-03-23T09:21:25;461.40;2380.80
57030;DHT22;42920;45.306;20.448;2023-03-23T09:23:53;461.60;2304.00
57030;DHT22;42920;45.306;20.448;2023-03-23T09:26:22;461.70;2278.40
57030;DHT22;42920;45.306;20.448;2023-03-23T09:28:47;486.40;2073.60
57030;DHT22;42920;45.306;20.448;2023-03-23T09:31:13;486.40;2022.40
57030;DHT22;42920;45.306;20.448;2023-03-23T09:33:39;486.50;2022.40
57030;DHT22;42920;45.306;20.448;2023-03-23T09:36:05;486.70;1971.20
57030;DHT22;42920;45.306;20.448;2023-03-23T09:38:33;486.70;1920.00
57030;DHT22;42920;45.306;20.448;2023-03-23T09:49:21;487.00;1868.80
57030;DHT22;42920;45.306;20.448;2023-03-23T09:52:08;487.10;1792.00
57030;DHT22;42920;45.306;20.448;2023-03-23T09:54:44;487.30;1817.60
57030;DHT22;42920;45.306;20.448;2023-03-23T09:57:38;512.00;1740.80
57030;DHT22;42920;45.306;20.448;2023-03-23T10:00:15;512.10;1689.60
57030;DHT22;42920;45.306;20.448;2023-03-23T10:05:33;512.40;1561.60
57030;DHT22;42920;45.306;20.448;2023-03-23T10:08:01;512.50;1612.80
57030;DHT22;42920;45.306;20.448;2023-03-23T10:13:52;512.90;1484.80
57030;DHT22;42920;45.306;20.448;2023-03-23T10:16:34;537.80;1510.40
57030;DHT22;42920;45.306;20.448;2023-03-23T10:21:51;538.10;1408.00
57030;DHT22;42920;45.306;20.448;2023-03-23T10:24:26;538.00;1433.60
57030;DHT22;42920;45.306;20.448;2023-03-23T10:27:12;538.00;1408.00
57030;DHT22;42920;45.306;20.448;2023-03-23T10:29:48;538.20;1356.80
57030;DHT22;42920;45.306;20.448;2023-03-23T10:32:40;538.40;1280.00
57030;DHT22;42920;45.306;20.448;2023-03-23T10:35:13;538.40;1382.40
57030;DHT22;42920;45.306;20.448;2023-03-23T10:37:47;538.40;1356.80
57030;DHT22;42920;45.306;20.448;2023-03-23T10:40:22;538.50;1305.60
57030;DHT22;42920;45.306;20.448;2023-03-23T10:42:49;538.50;1331.20
57030;DHT22;42920;45.306;20.448;2023-03-23T10:45:22;563.20;1331.20
57030;DHT22;42920;45.306;20.448;2023-03-23T10:47:54;563.50;1356.80
57030;DHT22;42920;45.306;20.448;2023-03-23T10:50:31;563.20;1331.20
57030;DHT22;42920;45.306;20.448;2023-03-23T10:52:59;538.50;1331.20
57030;DHT22;42920;45.306;20.448;2023-03-23T10:55:36;563.60;1305.60
57030;DHT22;42920;45.306;20.448;2023-03-23T10:58:09;563.70;1254.40
57030;DHT22;42920;45.306;20.448;2023-03-23T11:00:44;563.70;1280.00
57030;DHT22;42920;45.306;20.448;2023-03-23T11:05:43;589.00;1254.40
57030;DHT22;42920;45.306;20.448;2023-03-23T11:08:15;588.80;1280.00
57030;DHT22;42920;45.306;20.448;2023-03-23T11:11:08;564.10;1305.60
57030;DHT22;42920;45.306;20.448;2023-03-23T11:13:44;588.80;1305.60
57030;DHT22;42920;45.306;20.448;2023-03-23T11:16:29;589.00;1305.60
57030;DHT22;42920;45.306;20.448;2023-03-23T11:18:57;589.00;1254.40
57030;DHT22;42920;45.306;20.448;2023-03-23T11:21:24;589.30;1254.40
57030;DHT22;42920;45.306;20.448;2023-03-23T11:23:55;589.10;1254.40
57030;DHT22;42920;45.306;20.448;2023-03-23T11:26:32;589.40;1254.40
57030;DHT22;42920;45.306;20.448;2023-03-23T11:29:15;589.30;1280.00
57030;DHT22;42920;45.306;20.448;2023-03-23T11:31:45;589.60;1254.40
57030;DHT22;42920;45.306;20.448;2023-03-23T11:34:21;589.50;1228.80
57030;DHT22;42920;45.306;20.448;2023-03-23T11:36:53;589.20;1254.40
57030;DHT22;42920;45.306;20.448;2023-03-23T11:39:29;589.40;1280.00
57030;DHT22;42920;45.306;20.448;2023-03-23T11:41:58;589.50;1177.60
57030;DHT22;42920;45.306;20.448;2023-03-23T11:44:31;589.30;1177.60
57030;DHT22;42920;45.306;20.448;2023-03-23T11:52:03;589.20;1203.20
57030;DHT22;42920;45.306;20.448;2023-03-23T11:54:33;589.20;1228.80
57030;DHT22;42920;45.306;20.448;2023-03-23T11:56:59;589.10;1228.80
57030;DHT22;42920;45.306;20.448;2023-03-23T11:59:33;589.30;1203.20
57030;DHT22;42920;45.306;20.448;2023-03-23T12:10:41;614.70;1126.40
57030;DHT22;42920;45.306;20.448;2023-03-23T12:15:57;614.50;1126.40
57030;DHT22;42920;45.306;20.448;2023-03-23T12:18:48;589.70;1152.00
57030;DHT22;42920;45.306;20.448;2023-03-23T12:24:19;589.40;1177.60
57030;DHT22;42920;45.306;20.448;2023-03-23T12:26:56;589.50;1203.20
57030;DHT22;42920;45.306;20.448;2023-03-23T12:40:32;589.60;1152.00
57030;DHT22;42920;45.306;20.448;2023-03-23T12:43:08;589.50;1177.60
57030;DHT22;42920;45.306;20.448;2023-03-23T12:48:37;589.50;1203.20
57030;DHT22;42920;45.306;20.448;2023-03-23T12:51:15;589.50;1203.20
57030;DHT22;42920;45.306;20.448;2023-03-23T12:53:53;589.20;1203.20
57030;DHT22;42920;45.306;20.448;2023-03-23T12:59:06;589.20;1203.20
57030;DHT22;42920;45.306;20.448;2023-03-23T13:01:48;589.40;1177.60
57030;DHT22;42920;45.306;20.448;2023-03-23T13:04:17;589.70;1177.60
57030;DHT22;42920;45.306;20.448;2023-03-23T13:06:46;589.70;1152.00
57030;DHT22;42920;45.306;20.448;2023-03-23T13:12:02;589.70;1152.00
57030;DHT22;42920;45.306;20.448;2023-03-23T13:14:43;589.70;1177.60
57030;DHT22;42920;45.306;20.448;2023-03-23T13:20:21;589.70;1152.00
57030;DHT22;42920;45.306;20.448;2023-03-23T13:22:52;589.70;1177.60
57030;DHT22;42920;45.306;20.448;2023-03-23T13:25:37;589.70;1126.40
57030;DHT22;42920;45.306;20.448;2023-03-23T13:28:04;614.50;1126.40
57030;DHT22;42920;45.306;20.448;2023-03-23T13:30:30;614.60;1126.40
57030;DHT22;42920;45.306;20.448;2023-03-23T13:33:04;614.70;1126.40
57030;DHT22;42920;45.306;20.448;2023-03-23T13:35:36;614.60;1152.00
57030;DHT22;42920;45.306;20.448;2023-03-23T13:38:13;589.70;1152.00
57030;DHT22;42920;45.306;20.448;2023-03-23T13:40:43;589.70;1152.00
57030;DHT22;42920;45.306;20.448;2023-03-23T13:43:10;614.40;1126.40
57030;DHT22;42920;45.306;20.448;2023-03-23T13:45:42;614.40;1126.40
57030;DHT22;42920;45.306;20.448;2023-03-23T13:53:20;589.40;1126.40
57030;DHT22;42920;45.306;20.448;2023-03-23T13:56:05;589.20;1126.40
57030;DHT22;42920;45.306;20.448;2023-03-23T13:58:31;589.20;1126.40
57030;DHT22;42920;45.306;20.448;2023-03-23T14:03:40;589.50;1100.80
57030;DHT22;42920;45.306;20.448;2023-03-23T14:06:27;589.40;1126.40
57030;DHT22;42920;45.306;20.448;2023-03-23T14:09:10;589.20;1152.00
57030;DHT22;42920;45.306;20.448;2023-03-23T14:11:59;564.10;1152.00
57030;DHT22;42920;45.306;20.448;2023-03-23T14:19:52;564.00;1203.20
57030;DHT22;42920;45.306;20.448;2023-03-23T14:22:35;564.10;1177.60
57030;DHT22;42920;45.306;20.448;2023-03-23T14:25:12;588.90;1152.00
57030;DHT22;42920;45.306;20.448;2023-03-23T14:27:39;564.10;1177.60
57030;DHT22;42920;45.306;20.448;2023-03-23T14:30:12;564.10;1177.60
57030;DHT22;42920;45.306;20.448;2023-03-23T14:32:38;564.10;1177.60
57030;DHT22;42920;45.306;20.448;2023-03-23T14:35:14;564.10;1126.40
57030;DHT22;42920;45.306;20.448;2023-03-23T14:37:41;564.10;1152.00
57030;DHT22;42920;45.306;20.448;2023-03-23T14:40:13;564.10;1126.40
57030;DHT22;42920;45.306;20.448;2023-03-23T14:42:40;563.90;1126.40
57030;DHT22;42920;45.306;20.448;2023-03-23T14:45:10;563.90;1126.40
57030;DHT22;42920;45.306;20.448;2023-03-23T14:47:42;564.00;1126.40
57030;DHT22;42920;45.306;20.448;2023-03-23T14:52:48;564.00;1152.00
57030;DHT22;42920;45.306;20.448;2023-03-23T14:57:45;563.40;1177.60
57030;DHT22;42920;45.306;20.448;2023-03-23T15:00:16;563.40;1203.20
57030;DHT22;42920;45.306;20.448;2023-03-23T15:02:46;563.40;1228.80
57030;DHT22;42920;45.306;20.448;2023-03-23T15:05:21;563.40;1203.20
57030;DHT22;42920;45.306;20.448;2023-03-23T15:07:52;563.50;1203.20
57030;DHT22;42920;45.306;20.448;2023-03-23T15:10:21;563.50;1177.60
57030;DHT22;42920;45.306;20.448;2023-03-23T15:12:49;563.50;1203.20
57030;DHT22;42920;45.306;20.448;2023-03-23T15:17:53;563.60;1177.60
57030;DHT22;42920;45.306;20.448;2023-03-23T15:20:23;563.50;1177.60
57030;DHT22;42920;45.306;20.448;2023-03-23T15:22:50;563.40;1177.60
57030;DHT22;42920;45.306;20.448;2023-03-23T15:27:58;538.40;1177.60
57030;DHT22;42920;45.306;20.448;2023-03-23T15:30:53;538.40;1203.20
57030;DHT22;42920;45.306;20.448;2023-03-23T15:33:19;538.20;1203.20
57030;DHT22;42920;45.306;20.448;2023-03-23T15:35:52;538.10;1203.20
57030;DHT22;42920;45.306;20.448;2023-03-23T15:38:25;538.00;1254.40
57030;DHT22;42920;45.306;20.448;2023-03-23T15:40:57;537.90;1280.00
57030;DHT22;42920;45.306;20.448;2023-03-23T15:43:26;538.00;1280.00
57030;DHT22;42920;45.306;20.448;2023-03-23T15:48:33;538.10;1280.00
57030;DHT22;42920;45.306;20.448;2023-03-23T15:51:10;538.20;1280.00
57030;DHT22;42920;45.306;20.448;2023-03-23T15:53:37;538.30;1228.80
57030;DHT22;42920;45.306;20.448;2023-03-23T15:56:07;538.20;1228.80
57030;DHT22;42920;45.306;20.448;2023-03-23T15:58:34;538.20;1254.40
57030;DHT22;42920;45.306;20.448;2023-03-23T16:01:04;538.20;1228.80
57030;DHT22;42920;45.306;20.448;2023-03-23T16:03:40;538.20;1254.40
57030;DHT22;42920;45.306;20.448;2023-03-23T16:06:10;538.10;1254.40
57030;DHT22;42920;45.306;20.448;2023-03-23T16:08:36;537.90;1254.40
57030;DHT22;42920;45.306;20.448;2023-03-23T16:11:09;537.80;1254.40
57030;DHT22;42920;45.306;20.448;2023-03-23T16:13:35;537.80;1254.40
57030;DHT22;42920;45.306;20.448;2023-03-23T16:16:01;537.60;1280.00
57030;DHT22;42920;45.306;20.448;2023-03-23T16:18:29;538.20;1280.00
57030;DHT22;42920;45.306;20.448;2023-03-23T16:20:56;512.80;1280.00
57030;DHT22;42920;45.306;20.448;2023-03-23T16:23:22;512.80;1280.00
57030;DHT22;42920;45.306;20.448;2023-03-23T16:25:48;512.70;1280.00
57030;DHT22;42920;45.306;20.448;2023-03-23T16:28:14;512.60;1280.00
57030;DHT22;42920;45.306;20.448;2023-03-23T16:30:42;512.50;1280.00
57030;DHT22;42920;45.306;20.448;2023-03-23T16:33:08;512.40;1305.60
57030;DHT22;42920;45.306;20.448;2023-03-23T16:35:34;512.30;1305.60
57030;DHT22;42920;45.306;20.448;2023-03-23T16:38:00;512.20;1305.60
57030;DHT22;42920;45.306;20.448;2023-03-23T16:40:26;512.30;1331.20
57030;DHT22;42920;45.306;20.448;2023-03-23T16:42:52;512.00;1382.40
57030;DHT22;42920;45.306;20.448;2023-03-23T16:45:18;487.20;1331.20
57030;DHT22;42920;45.306;20.448;2023-03-23T16:47:45;487.10;1331.20
57030;DHT22;42920;45.306;20.448;2023-03-23T16:50:13;487.10;1331.20